Flight Track Log - Related Links

Times and Time Zones

All times are in EDT time to prevent confusion due to time zone crossing. See the DAL268 flight status page for this flight to view local times or setup timezone preferences in your user account.

Time Position Orientation Groundspeed Altitude Reporting Facility
EDT Latitude Longitude Course Direction KTS MPH feet Rate Location/Type
Fri 02:56:01 PM 37.6667 -122.3333 35° Northeast 195 224 2,300  Level Northern Cal TRACON
Fri 02:57:01 PM 37.7000 -122.2667 58° Northeast 250 288 5,000 2,750 Climbing Northern Cal TRACON
Fri 02:58:00 PM 37.7059 -122.2775 38° Northeast  Level FlightAware Approximate
Fri 02:58:01 PM 37.7667 -122.2000 38° Northeast 275 316 7,800  Level Northern Cal TRACON
Fri 02:59:00 PM 37.8109 -122.1725 38° Northeast  Level FlightAware Approximate
Fri 03:00:00 PM 37.9160 -122.0674 38° Northeast  Level FlightAware Approximate
Fri 03:00:24 PM 37.9278 -122.0517 36° Northeast 347 399 11,900  Level Oakland Center
Fri 03:01:00 PM 38.0121 -121.9582 35° Northeast  Level FlightAware Approximate
Fri 03:01:26 PM 38.0122 -121.9697 37° Northeast 382 440 14,000  Level Oakland Center
Fri 03:02:27 PM 38.1006 -121.8858 37° Northeast 395 455 16,200 1,805 Climbing Oakland Center
Fri 03:03:29 PM 38.1919 -121.7969 37° Northeast 411 473 17,700 1,659 Climbing Oakland Center
Fri 03:04:30 PM 38.2869 -121.7058 37° Northeast 427 491 19,600 1,967 Climbing Oakland Center
Fri 03:05:31 PM 38.4022 -121.5928 38° Northeast 436 502 21,700 1,854 Climbing Oakland Center
Fri 03:06:33 PM 38.4889 -121.4769 46° Northeast 454 522 23,400 1,610 Climbing Oakland Center
Fri 03:07:34 PM 38.5656 -121.3464 53° Northeast 460 529 25,000 1,415 Climbing Oakland Center
Fri 03:08:36 PM 38.6433 -121.2094 54° Northeast 471 542 26,300 1,366 Climbing Oakland Center
Fri 03:09:37 PM 38.7233 -121.0706 54° Northeast 485 558 27,800 1,268 Climbing Oakland Center
Fri 03:10:39 PM 38.8044 -120.9311 53° Northeast 487 560 28,900 1,268 Climbing Oakland Center
Fri 03:11:40 PM 38.8847 -120.7908 54° Northeast 488 562 30,400 1,366 Climbing Oakland Center
Fri 03:12:42 PM 38.9650 -120.6536 53° Northeast 483 556 31,700 1,220 Climbing Oakland Center
Fri 03:13:43 PM 39.0614 -120.4839 54° Northeast 487 560 32,900 1,366 Climbing Oakland Center
Fri 03:14:45 PM 39.1422 -120.3467 53° Northeast 484 557 34,500 1,268 Climbing Oakland Center
Fri 03:15:46 PM 39.2189 -120.2092 54° Northeast 476 548 35,500 878 Climbing Oakland Center
Fri 03:16:48 PM 39.2986 -120.0683 54° Northeast 475 547 36,300 732 Climbing Oakland Center
Fri 03:17:49 PM 39.3761 -119.9306 54° Northeast 472 543 37,000 341 Climbing Oakland Center
Fri 03:18:51 PM 39.4553 -119.7917 54° Northeast 477 549 37,000  Level Oakland Center
Fri 03:19:52 PM 39.5342 -119.6522 54° Northeast 477 549 37,000  Level Oakland Center
Fri 03:20:54 PM 39.6125 -119.5111 54° Northeast 479 551 37,000  Level Oakland Center
Fri 03:21:55 PM 39.6906 -119.3697 54° Northeast 479 551 37,000  Level Oakland Center
Fri 03:22:57 PM 39.7697 -119.2264 54° Northeast 484 557 37,000  Level Oakland Center
Fri 03:23:58 PM 39.8489 -119.0844 54° Northeast 482 555 37,000  Level Oakland Center
Fri 03:25:00 PM 39.9275 -118.9408 54° Northeast 483 556 37,000  Level Oakland Center
Fri 03:26:01 PM 40.0228 -118.7692 54° Northeast 484 557 37,000  Level Oakland Center
Fri 03:27:03 PM 40.1000 -118.6236 55° Northeast 485 558 37,000  Level Oakland Center
Fri 03:28:04 PM 40.1572 -118.4628 65° Northeast 489 563 37,000  Level Oakland Center
Fri 03:29:00 PM 40.1947 -118.3244 70° East 491 565 37,000  Level Salt Lake Center
Fri 03:30:02 PM 40.2461 -118.1369 70° East 490 564 37,000  Level Salt Lake Center
Fri 03:31:03 PM 40.2892 -117.9744 71° East 493 567 37,000  Level Salt Lake Center
Fri 03:32:05 PM 40.3408 -117.7858 70° East 492 566 37,000  Level Salt Lake Center
Fri 03:33:07 PM 40.3842 -117.6236 71° East 492 566 37,000  Level Salt Lake Center
Fri 03:34:09 PM 40.4353 -117.4331 71° East 493 567 37,000  Level Salt Lake Center
Fri 03:35:11 PM 40.4786 -117.2694 71° East 494 568 37,000  Level Salt Lake Center
Fri 03:36:13 PM 40.5219 -117.1031 71° East 498 573 37,000  Level Salt Lake Center
Fri 03:37:14 PM 40.5747 -116.9081 70° East 499 574 37,000  Level Salt Lake Center
Fri 03:38:16 PM 40.6194 -116.7408 71° East 499 574 37,000  Level Salt Lake Center
Fri 03:39:18 PM 40.6642 -116.5750 70° East 500 575 37,000  Level Salt Lake Center
Fri 03:40:20 PM 40.7150 -116.3817 71° East 499 574 37,000  Level Salt Lake Center
Fri 03:41:21 PM 40.7594 -116.2153 71° East 500 575 37,000  Level Salt Lake Center
Fri 03:42:23 PM 40.8125 -116.0203 70° East 504 580 37,000  Level Salt Lake Center
Fri 03:43:25 PM 40.8567 -115.8556 70° East 500 575 37,000  Level Salt Lake Center
Fri 03:44:27 PM 40.8986 -115.6878 72° East 501 577 37,000  Level Salt Lake Center
Fri 03:45:28 PM 40.9503 -115.4931 71° East 503 579 37,000  Level Salt Lake Center
Fri 03:46:30 PM 40.9936 -115.3261 71° East 501 577 37,000  Level Salt Lake Center
Fri 03:47:32 PM 41.0428 -115.1300 72° East 503 579 37,000  Level Salt Lake Center
Fri 03:48:34 PM 41.0864 -114.9631 71° East 502 578 37,000  Level Salt Lake Center
Fri 03:49:35 PM 41.1275 -114.7914 72° East 501 577 37,000  Level Salt Lake Center
Fri 03:50:37 PM 41.1725 -114.6167 71° East 502 578 37,000  Level Salt Lake Center
Fri 03:51:39 PM 41.2239 -114.4061 72° East 501 577 37,000  Level Salt Lake Center
Fri 03:52:41 PM 41.2669 -114.2306 72° East 501 577 37,000  Level Salt Lake Center
Fri 03:53:42 PM 41.3097 -114.0556 72° East 500 575 37,000  Level Salt Lake Center
Fri 03:54:44 PM 41.3525 -113.8800 72° East 500 575 37,000  Level Salt Lake Center
Fri 03:55:46 PM 41.3822 -113.6967 78° East 505 581 37,000  Level Salt Lake Center
Fri 03:56:48 PM 41.4056 -113.5108 80° East 509 586 37,000  Level Salt Lake Center
Fri 03:57:49 PM 41.4275 -113.3244 81° East 509 586 37,000  Level Salt Lake Center
Fri 03:58:51 PM 41.4556 -113.1017 80° East 508 585 37,000  Level Salt Lake Center
Fri 03:59:53 PM 41.4775 -112.9156 81° East 508 585 37,000  Level Salt Lake Center
Fri 04:00:55 PM 41.5014 -112.7294 80° East 508 585 37,000  Level Salt Lake Center
Fri 04:01:56 PM 41.5239 -112.5431 81° East 508 585 37,000  Level Salt Lake Center
Fri 04:02:58 PM 41.5447 -112.3553 82° East 510 587 37,000  Level Salt Lake Center
Fri 04:04:00 PM 41.5642 -112.1672 82° East 510 587 37,000  Level Salt Lake Center
Fri 04:05:01 PM 41.5836 -111.9783 82° East 511 588 37,000  Level Salt Lake Center
Fri 04:06:03 PM 41.6022 -111.7894 82° East 510 587 37,000  Level Salt Lake Center
Fri 04:07:05 PM 41.6256 -111.5633 82° East 510 587 37,000  Level Salt Lake Center
Fri 04:08:07 PM 41.6433 -111.3761 83° East 508 585 37,000  Level Salt Lake Center
Fri 04:09:08 PM 41.6611 -111.1878 83° East 509 586 37,000  Level Salt Lake Center
Fri 04:10:10 PM 41.6797 -110.9992 82° East 511 588 37,000  Level Salt Lake Center
Fri 04:11:12 PM 41.6975 -110.8083 83° East 509 586 37,000  Level Salt Lake Center
Fri 04:12:13 PM 41.7136 -110.6278 83° East 510 587 37,000  Level Salt Lake Center
Fri 04:13:15 PM 41.7322 -110.4172 83° East 511 588 37,000  Level Salt Lake Center
Fri 04:14:17 PM 41.7483 -110.2381 83° East 509 586 37,000  Level Salt Lake Center
Fri 04:15:19 PM 41.7667 -110.0275 83° East 509 586 37,000  Level Salt Lake Center
Fri 04:16:21 PM 41.7819 -109.8469 83° East 509 586 37,000  Level Salt Lake Center
Fri 04:17:22 PM 41.7994 -109.6367 84° East 507 583 37,000  Level Salt Lake Center
Fri 04:18:24 PM 41.8142 -109.4575 84° East 504 580 37,000  Level Salt Lake Center
Fri 04:19:26 PM 41.8289 -109.2767 84° East 505 581 37,000  Level Salt Lake Center
Fri 04:20:28 PM 41.8444 -109.0650 84° East 507 583 37,000  Level Salt Lake Center
Fri 04:21:30 PM 41.8583 -108.8828 84° East 509 586 37,000  Level Salt Lake Center
Fri 04:22:32 PM 41.8744 -108.6694 84° East 512 589 37,000  Level Salt Lake Center
Fri 04:23:34 PM 41.8867 -108.4869 85° East 511 588 37,000  Level Salt Lake Center
Fri 04:24:35 PM 41.9006 -108.3072 84° East 509 586 37,000  Level Salt Lake Center
Fri 04:25:37 PM 41.9167 -108.0975 84° East 508 585 37,000  Level Salt Lake Center
Fri 04:26:39 PM 41.9258 -107.9131 86° East 515 593 37,000  Level Salt Lake Center
Fri 04:27:41 PM 41.9394 -107.7008 85° East 512 589 37,000  Level Salt Lake Center
Fri 04:28:43 PM 41.9506 -107.5192 85° East 511 588 37,000  Level Salt Lake Center
Fri 04:29:45 PM 41.9636 -107.3061 85° East 513 590 37,000  Level Salt Lake Center
Fri 04:30:46 PM 41.9756 -107.1247 85° East 511 588 37,000  Level Salt Lake Center
Fri 04:31:48 PM 41.9869 -106.9117 86° East 512 589 37,000  Level Salt Lake Center
Fri 04:32:50 PM 41.9972 -106.7283 86° East 514 592 37,000  Level Salt Lake Center
Fri 04:33:52 PM 42.0092 -106.5167 86° East 514 592 37,000  Level Salt Lake Center
Fri 04:34:54 PM 42.0178 -106.3319 86° East 518 596 37,000  Level Salt Lake Center
Fri 04:35:56 PM 42.0292 -106.1461 85° East 522 601 37,000  Level Salt Lake Center
Fri 04:36:57 PM 42.0408 -105.9294 86° East 521 600 37,000  Level Salt Lake Center
Fri 04:38:07 PM 42.0511 -105.7111 86° East 523 602 37,000  Level Denver Center
Fri 04:39:09 PM 42.0594 -105.4939 87° East 523 602 37,000  Level Denver Center
Fri 04:40:11 PM 42.0692 -105.3108 86° East 518 596 37,000  Level Denver Center
Fri 04:41:13 PM 42.0792 -105.0958 86° East 518 596 37,000  Level Denver Center
Fri 04:42:15 PM 42.0969 -104.9139 82° East 516 594 37,000  Level Denver Center
Fri 04:43:17 PM 42.1144 -104.7008 84° East 518 596 37,000  Level Denver Center
Fri 04:44:19 PM 42.1292 -104.5178 84° East 518 596 37,000  Level Denver Center
Fri 04:45:21 PM 42.1481 -104.3028 83° East 522 601 37,000  Level Denver Center
Fri 04:46:22 PM 42.1619 -104.1192 84° East 521 600 37,000  Level Denver Center
Fri 04:47:24 PM 42.1797 -103.9064 83° East 517 595 37,000  Level Denver Center
Fri 04:48:26 PM 42.1939 -103.7225 84° East 519 597 37,000  Level Denver Center
Fri 04:49:28 PM 42.2108 -103.5097 84° East 516 594 37,000  Level Denver Center
Fri 04:50:30 PM 42.2231 -103.3256 85° East 517 595 37,000  Level Denver Center
Fri 04:51:32 PM 42.2397 -103.1103 84° East 520 598 37,000  Level Denver Center
Fri 04:52:34 PM 42.2525 -102.9283 85° East 514 592 37,000  Level Denver Center
Fri 04:53:36 PM 42.2678 -102.7161 84° East 512 589 37,000  Level Denver Center
Fri 04:54:38 PM 42.2797 -102.5350 85° East 508 585 37,000  Level Denver Center
Fri 04:55:40 PM 42.2947 -102.3233 84° East 510 587 37,000  Level Denver Center
Fri 04:56:42 PM 42.3058 -102.1417 85° East 509 586 37,000  Level Denver Center
Fri 04:57:44 PM 42.3186 -101.9297 85° East 510 587 37,000  Level Denver Center
Fri 04:58:45 PM 42.3300 -101.7378 85° East 513 590 37,000  Level Denver Center
Fri 04:59:47 PM 42.3411 -101.5533 85° East 515 593 37,000  Level Denver Center
Fri 05:00:49 PM 42.3536 -101.3367 85° East 518 596 37,000  Level Denver Center
Fri 05:01:52 PM 42.3639 -101.1508 86° East 518 596 37,000  Level Denver Center
Fri 05:02:53 PM 42.3744 -100.9353 86° East 515 593 37,000  Level Denver Center
Fri 05:03:55 PM 42.3844 -100.7511 86° East 513 590 37,000  Level Denver Center
Fri 05:04:57 PM 42.3933 -100.5628 86° East 519 597 37,000  Level Denver Center
Fri 05:05:59 PM 42.4042 -100.3458 86° East 519 597 37,000  Level Denver Center
Fri 05:07:01 PM 42.4128 -100.1589 86° East 519 597 37,000  Level Denver Center
Fri 05:08:03 PM 42.4222 -99.9417 87° East 518 596 37,000  Level Denver Center
Fri 05:09:05 PM 42.4308 -99.7431 87° East 521 600 37,000  Level Denver Center
Fri 05:10:07 PM 42.4394 -99.5472 87° East 520 598 37,000  Level Denver Center
Fri 05:11:09 PM 42.4464 -99.3508 87° East 521 600 37,000  Level Denver Center
Fri 05:12:11 PM 42.4539 -99.1531 87° East 523 602 37,000  Level Denver Center
Fri 05:13:16 PM 42.4636 -98.9153 87° East 526 605 37,000  Level Minneapolis Center
Fri 05:14:18 PM 42.4689 -98.7158 88° East 529 609 37,000  Level Minneapolis Center
Fri 05:15:20 PM 42.4778 -98.5147 87° East 532 612 37,000  Level Minneapolis Center
Fri 05:16:22 PM 42.4889 -98.3136 86° East 533 613 37,000  Level Minneapolis Center
Fri 05:17:24 PM 42.4978 -98.1111 87° East 536 617 37,000  Level Minneapolis Center
Fri 05:18:26 PM 42.5069 -97.9094 86° East 535 616 37,000  Level Minneapolis Center
Fri 05:19:28 PM 42.5175 -97.6878 86° East 531 611 37,000  Level Minneapolis Center
Fri 05:20:30 PM 42.5261 -97.4856 87° East 535 616 37,000  Level Minneapolis Center
Fri 05:21:32 PM 42.5342 -97.2839 87° East 536 617 37,000  Level Minneapolis Center
Fri 05:22:34 PM 42.5419 -97.0822 87° East 536 617 37,000  Level Minneapolis Center
Fri 05:23:36 PM 42.5486 -96.8811 87° East 535 616 37,000  Level Minneapolis Center
Fri 05:24:37 PM 42.5558 -96.6772 87° East 538 619 37,000  Level Minneapolis Center
Fri 05:25:39 PM 42.5636 -96.4336 87° East 537 618 37,000  Level Minneapolis Center
Fri 05:26:41 PM 42.5697 -96.2442 87° East 538 619 37,000  Level Minneapolis Center
Fri 05:27:43 PM 42.5761 -96.0256 88° East 542 624 37,000  Level Minneapolis Center
Fri 05:28:45 PM 42.5814 -95.8211 88° East 541 623 37,000  Level Minneapolis Center
Fri 05:29:47 PM 42.5875 -95.6194 88° East 537 618 37,000  Level Minneapolis Center
Fri 05:30:49 PM 42.5911 -95.4144 89° East 539 620 37,000  Level Minneapolis Center
Fri 05:31:51 PM 42.5969 -95.1936 88° East 537 618 37,000  Level Minneapolis Center
Fri 05:32:53 PM 42.5997 -95.0119 89° East 534 615 37,000  Level Minneapolis Center
Fri 05:33:54 PM 42.6036 -94.7739 89° East 529 609 37,000  Level Minneapolis Center
Fri 05:34:56 PM 42.6064 -94.5756 89° East 527 606 37,000  Level Minneapolis Center
Fri 05:35:58 PM 42.6086 -94.3656 89° East 530 610 37,000  Level Minneapolis Center
Fri 05:37:00 PM 42.6111 -94.1678 89° East 529 609 37,000  Level Minneapolis Center
Fri 05:38:02 PM 42.6128 -93.9714 89° East 526 605 37,000  Level Minneapolis Center
Fri 05:39:04 PM 42.6136 -93.7742 90° East 528 608 37,000  Level Minneapolis Center
Fri 05:40:05 PM 42.6147 -93.5758 89° East 529 609 37,000  Level Minneapolis Center
Fri 05:41:07 PM 42.6161 -93.3383 89° East 529 609 37,000  Level Minneapolis Center
Fri 05:42:09 PM 42.6156 -93.1411 90° East 528 608 37,000  Level Minneapolis Center
Fri 05:42:55 PM 42.6153 -92.9825 90° East 527 606 37,000  Level Chicago Center
Fri 05:43:57 PM 42.6153 -92.7844 90° East 527 606 37,000  Level Chicago Center
Fri 05:44:59 PM 42.6147 -92.5889 90° East 525 604 37,000  Level Chicago Center
Fri 05:46:01 PM 42.6133 -92.3917 90° East 525 604 37,000  Level Chicago Center
Fri 05:47:04 PM 42.6114 -92.1950 91° East 526 605 37,000  Level Chicago Center
Fri 05:48:06 PM 42.6086 -91.9600 91° East 527 606 37,000  Level Chicago Center
Fri 05:49:08 PM 42.6064 -91.7644 91° East 527 606 37,000  Level Chicago Center
Fri 05:50:10 PM 42.6064 -91.5700 90° East 531 611 37,000  Level Chicago Center
Fri 05:51:12 PM 42.6033 -91.3378 91° East 528 608 37,000  Level Chicago Center
Fri 05:52:14 PM 42.5992 -91.1403 92° East 531 611 37,000  Level Chicago Center
Fri 05:53:16 PM 42.5942 -90.9433 92° East 530 610 37,000  Level Chicago Center
Fri 05:54:18 PM 42.5900 -90.7442 92° East 534 615 37,000  Level Chicago Center
Fri 05:55:20 PM 42.5869 -90.5444 91° East 534 615 37,000  Level Chicago Center
Fri 05:56:22 PM 42.5800 -90.3050 92° East 536 617 37,000  Level Chicago Center
Fri 05:57:25 PM 42.5744 -90.1047 92° East 536 617 37,000  Level Chicago Center
Fri 05:58:27 PM 42.5683 -89.8894 92° East 536 617 37,000  Level Chicago Center
Fri 05:59:29 PM 42.5625 -89.6881 92° East 538 619 37,000  Level Chicago Center
Fri 06:00:31 PM 42.5567 -89.4867 92° East 538 619 37,000  Level Chicago Center
Fri 06:01:33 PM 42.5492 -89.2856 93° East 538 619 37,000  Level Chicago Center
Fri 06:02:35 PM 42.5419 -89.0428 92° East 540 621 37,000  Level Chicago Center
Fri 06:03:37 PM 42.5347 -88.8447 93° East 533 613 37,000  Level Chicago Center
Fri 06:04:39 PM 42.5272 -88.6428 93° East 537 618 37,000  Level Chicago Center
Fri 06:05:41 PM 42.5192 -88.4372 93° East 545 627 37,000  Level Chicago Center
Fri 06:06:43 PM 42.5097 -88.2347 94° East 546 628 37,000  Level Chicago Center
Fri 06:07:45 PM 42.5006 -87.9919 93° East 542 624 37,000  Level Chicago Center
Fri 06:08:48 PM 42.4992 -87.7886 90° East 542 624 37,000  Level Chicago Center
Fri 06:09:50 PM 42.4992 -87.5961 90° East 544 626 37,000  Level Chicago Center
Fri 06:10:52 PM 42.4983 -87.3906 90° East 545 627 37,000  Level Chicago Center
Fri 06:11:54 PM 42.4967 -87.1428 90° East 549 632 37,000  Level Chicago Center
Fri 06:12:56 PM 42.4944 -86.9353 91° East 551 634 37,000  Level Chicago Center
Fri 06:13:58 PM 42.4928 -86.7292 91° East 550 633 37,000  Level Chicago Center
Fri 06:15:00 PM 42.4914 -86.5061 90° East 553 636 37,000  Level Chicago Center
Fri 06:16:02 PM 42.4875 -86.2992 91° East 553 636 37,000  Level Chicago Center
Fri 06:17:04 PM 42.4844 -86.0925 91° East 555 639 37,000  Level Chicago Center
Fri 06:18:06 PM 42.4814 -85.8867 91° East 553 636 37,000  Level Chicago Center
Fri 06:19:08 PM 42.4767 -85.6781 92° East 558 642 37,000  Level Chicago Center
Fri 06:20:10 PM 42.4717 -85.4278 91° East 560 644 37,000  Level Chicago Center
Fri 06:21:13 PM 42.4672 -85.2194 92° East 558 642 37,000  Level Chicago Center
Fri 06:22:16 PM 42.4622 -85.0097 92° East 559 643 37,000  Level Chicago Center
Fri 06:23:17 PM 42.4564 -84.8017 92° East 558 642 37,000  Level Chicago Center
Fri 06:24:19 PM 42.4511 -84.5917 92° East 560 644 37,000  Level Chicago Center
Fri 06:25:21 PM 42.4428 -84.3428 93° East 557 641 37,000  Level Chicago Center
Fri 06:26:23 PM 42.4361 -84.1328 92° East 559 643 37,000  Level Chicago Center
Fri 06:27:25 PM 42.4294 -83.9242 92° East 558 642 37,000  Level Chicago Center
Fri 06:28:44 PM 42.4175 -83.6475 93° East 559 643 37,000  Level Cleveland Center
Fri 06:29:46 PM 42.4100 -83.4447 93° East 559 643 37,000  Level Cleveland Center
Fri 06:30:48 PM 42.4000 -83.2175 93° East 560 644 37,000  Level Cleveland Center
Fri 06:31:51 PM 42.3903 -83.0075 94° East 557 641 37,000  Level Cleveland Center
Fri 06:32:53 PM 42.3811 -82.7989 93° East 556 640 37,000  Level Cleveland Center
Fri 06:33:55 PM 42.3711 -82.5486 93° East 555 639 37,000  Level Cleveland Center
Fri 06:34:57 PM 42.3625 -82.3397 93° East 557 641 37,000  Level Cleveland Center
Fri 06:35:59 PM 42.3542 -82.1325 93° East 555 639 37,000  Level Cleveland Center
Fri 06:37:01 PM 42.3461 -81.9319 93° East 558 642 37,000  Level Cleveland Center
Fri 06:38:03 PM 42.3339 -81.6864 94° East 557 641 37,000  Level Cleveland Center
Fri 06:39:05 PM 42.3244 -81.4761 93° East 555 639 37,000  Level Cleveland Center
Fri 06:40:07 PM 42.3150 -81.2706 93° East 545 627 37,000  Level Cleveland Center
Fri 06:41:09 PM 42.3050 -81.0689 94° East 535 616 37,000  Level Cleveland Center
Fri 06:42:11 PM 42.2947 -80.8678 94° East 531 611 37,000  Level Cleveland Center
Fri 06:43:13 PM 42.2531 -80.6789 107° East 520 598 37,000  Level Cleveland Center
Fri 06:44:15 PM 42.1614 -80.5381 131° Southeast 500 575 37,000  Level Cleveland Center
Fri 06:45:17 PM 42.0667 -80.4003 133° Southeast 497 572 37,000  Level Cleveland Center
Fri 06:46:19 PM 41.9978 -80.2328 119° Southeast 524 603 37,000  Level Cleveland Center
Fri 06:47:22 PM 42.0144 -80.0022 84° East 540 621 37,000  Level Cleveland Center
Fri 06:48:24 PM 42.0553 -79.8008 75° East 540 621 37,000  Level Cleveland Center
Fri 06:49:26 PM 42.0892 -79.6083 77° East 533 613 37,000  Level Cleveland Center
Fri 06:50:28 PM 42.0833 -79.4100 92° East 531 611 37,000  Level Cleveland Center
Fri 06:51:30 PM 42.0575 -79.2186 100° East 524 603 37,000  Level Cleveland Center
Fri 06:52:32 PM 42.0314 -79.0264 100° East 524 603 37,000  Level Cleveland Center
Fri 06:53:34 PM 41.9994 -78.7967 101° East 522 601 37,000  Level Cleveland Center
Fri 06:54:36 PM 41.9722 -78.6000 100° East 532 612 37,000  Level Cleveland Center
Fri 06:55:38 PM 41.9453 -78.4036 100° East 536 617 37,000  Level Cleveland Center
Fri 06:57:33 PM 41.8906 -78.0403 101° East 534 615 37,000  Level New York Center
Fri 06:58:33 PM 41.8558 -77.8219 102° East 539 620 37,000  Level New York Center
Fri 06:59:33 PM 41.8083 -77.6361 109° East 544 626 37,000  Level New York Center
Fri 07:00:33 PM 41.7586 -77.4503 110° East 533 613 37,000  Level New York Center
Fri 07:01:33 PM 41.7083 -77.2672 110° East 533 613 37,000  Level New York Center
Fri 07:02:33 PM 41.6581 -77.0792 110° East 533 613 37,000  Level New York Center
Fri 07:03:33 PM 41.6092 -76.8942 109° East 528 608 37,000  Level New York Center
Fri 07:04:33 PM 41.5581 -76.7119 110° East 522 601 37,000  Level New York Center
Fri 07:05:33 PM 41.5161 -76.5531 109° East 517 595 37,000  Level New York Center
Fri 07:06:33 PM 41.4644 -76.3686 110° East 517 595 37,000 -1,000 Level New York Center
Fri 07:07:33 PM 41.4092 -76.1678 110° East 524 603 35,000 -2,400 Descending New York Center
Fri 07:08:33 PM 41.3569 -75.9839 111° Southeast 526 605 32,200 -2,800 Descending New York Center
Fri 07:09:33 PM 41.3061 -75.8086 111° Southeast 515 593 29,400 -2,500 Descending New York Center
Fri 07:10:33 PM 41.2550 -75.6364 111° Southeast 510 587 27,200 -2,150 Descending New York Center
Fri 07:11:33 PM 41.2011 -75.4753 114° Southeast 497 572 25,100 -2,050 Descending New York Center
Fri 07:12:33 PM 41.1489 -75.3203 114° Southeast 472 543 23,100 -1,041 Descending New York Center
Fri 07:13:34 PM 41.0944 -75.1650 115° Southeast 461 531 23,000 -50 Descending New York Center
Fri 07:14:33 PM 41.0419 -75.0078 114° Southeast 461 531 23,000  Level New York Center
Fri 07:15:33 PM 40.9933 -74.8478 112° Southeast 466 536 23,000 -50 Level New York Center
Fri 07:16:33 PM 40.9722 -74.6681 99° East 478 550 22,900 -650 Descending New York Center
Fri 07:17:33 PM 40.9531 -74.4856 98° East 483 556 21,700 -1,450 Descending New York Center
Fri 07:18:33 PM 40.9356 -74.3144 98° East 489 563 20,000 -1,350 Descending New York Center
Fri 07:19:33 PM 40.9153 -74.1567 100° East 470 541 19,000 -1,050 Descending New York Center
Fri 07:20:33 PM 40.8467 -74.0792 139° Southeast 337 388 17,900 -1,350 Descending New York Center
Fri 07:21:33 PM 40.7725 -74.0456 161° South 313 360 16,300 -1,650 Descending New York Center
Fri 07:22:33 PM 40.6839 -74.0111 164° South 305 351 14,600 -1,600 Descending New York Center
Fri 07:23:33 PM 40.6139 -73.9778 160° South 300 345 13,100 -1,700 Descending New York Center
Fri 07:24:33 PM 40.5392 -73.8925 139° Southeast 305 351 11,200 -1,750 Descending New York Center
Fri 07:25:33 PM 40.4786 -73.8161 136° Southeast 309 356 9,600 -1,600 Descending New York Center
Fri 07:26:33 PM 40.4458 -73.7108 112° Southeast 309 356 8,000 -1,350 Descending New York Center
Fri 07:27:33 PM 40.4317 -73.6147 101° East 295 339 6,900 -1,139 Descending New York Center
Fri 07:28:50 PM 40.5000 -73.5000 52° Northeast 300 345 5,400 -1,099 Descending New York TRACON
Fri 07:29:44 PM 40.5667 -73.4833 11° North 264 304 4,500 -1,200 Descending New York TRACON
Fri 07:30:50 PM 40.6500 -73.4667 North 270 311 3,000 -667 Descending New York TRACON
Fri 07:31:50 PM 40.7167 -73.4833 349° North 267 307 3,100 -150 Climbing New York TRACON
Fri 07:32:50 PM 40.7500 -73.5500 303° West 232 267 2,700 -579 Descending New York TRACON
Fri 07:33:44 PM 40.7833 -73.6167 303° West 225 259 2,000 -316 Descending New York TRACON
Fri 07:34:44 PM 40.7667 -73.6667 246° West 153 176 2,100 -100 Climbing New York TRACON
Fri 07:35:44 PM 40.7167 -73.7000 207° Southwest 152 175 1,800 -450 Descending New York TRACON
Fri 07:36:44 PM 40.7000 -73.7167 217° Southwest 115 132 1,200 -600 Descending New York TRACON
Fri 07:37:44 PM 40.6667 -73.7333 201° Southwest 114 131 600 -600 Descending New York TRACON

Login

Don't have an account? Register now (free) for customized features, flight alerts, and more!